Time;durP1;ratioP1;P1;durP2;ratioP2;P2;SDS_P1;SDS_P2;PMS_P1;PMS_P2;Temp;Humidity;BMP_temperature;BMP_pressure;BME280_temperature;BME280_humidity;BME280_pressure;Samples;Min_cycle;Max_cycle;Signal;HPM_P1;HPM_P2
2023/11/23 00:00:52;;;;;;;17.07;11.67;;;;;;;5.82;55.66;98570.69;5067607;28;20441;-69
2023/11/23 00:03:17;;;;;;;18.43;10.60;;;;;;;5.78;55.27;98555.38;5070121;28;20218;-68
2023/11/23 00:05:43;;;;;;;15.70;11.50;;;;;;;5.60;56.28;98544.25;5066037;28;20210;-68
2023/11/23 00:08:08;;;;;;;14.87;11.30;;;;;;;5.61;56.01;98549.34;5067451;28;20194;-68
2023/11/23 00:10:34;;;;;;;16.07;12.80;;;;;;;5.65;56.03;98566.47;5069697;28;20190;-69
2023/11/23 00:12:59;;;;;;;17.10;12.23;;;;;;;5.66;55.80;98581.16;5070069;28;20351;-69
2023/11/23 00:15:25;;;;;;;17.00;11.60;;;;;;;5.73;55.74;98583.41;5068746;28;20217;-69
2023/11/23 00:17:52;;;;;;;17.83;12.27;;;;;;;5.66;56.33;98581.16;5062507;28;20247;-67
2023/11/23 00:20:17;;;;;;;17.27;11.50;;;;;;;5.54;56.10;98574.88;5057522;28;20214;-70
2023/11/23 00:22:43;;;;;;;15.77;10.57;;;;;;;5.53;56.44;98572.38;5063218;28;21205;-69
2023/11/23 00:25:13;;;;;;;19.20;12.53;;;;;;;5.62;56.39;98571.00;5069302;28;20585;-68
2023/11/23 00:27:39;;;;;;;19.23;11.60;;;;;;;5.56;56.83;98566.16;5066873;28;20195;-69
2023/11/23 00:30:06;;;;;;;15.53;11.70;;;;;;;5.50;56.37;98541.34;5067757;28;20451;-69
2023/11/23 00:32:32;;;;;;;16.57;13.27;;;;;;;5.45;56.51;98536.41;5060259;28;20321;-68
2023/11/23 00:34:57;;;;;;;15.40;11.90;;;;;;;5.50;56.37;98541.34;5067935;28;20520;-68
2023/11/23 00:37:23;;;;;;;17.83;12.17;;;;;;;5.51;56.17;98543.00;5069879;28;20190;-68
2023/11/23 00:39:48;;;;;;;16.10;11.97;;;;;;;5.51;56.42;98553.41;5066062;28;20269;-68
2023/11/23 00:42:14;;;;;;;15.10;12.20;;;;;;;5.56;56.04;98553.16;5068171;28;20211;-68
2023/11/23 00:44:39;;;;;;;17.10;12.57;;;;;;;5.57;55.63;98553.06;5060477;28;20213;-70
2023/11/23 00:47:05;;;;;;;15.83;12.10;;;;;;;5.57;56.19;98547.84;5068364;28;20273;-69
2023/11/23 00:49:30;;;;;;;16.33;12.70;;;;;;;5.56;56.14;98540.97;5064709;28;20202;-69
2023/11/23 00:51:56;;;;;;;16.40;11.93;;;;;;;5.61;56.31;98549.34;5060345;28;20211;-69
2023/11/23 00:54:21;;;;;;;18.20;12.10;;;;;;;5.59;56.32;98546.00;5058936;28;20656;-68
2023/11/23 00:56:47;;;;;;;14.37;11.00;;;;;;;5.59;56.70;98548.59;5058037;28;20683;-70
2023/11/23 00:59:12;;;;;;;15.20;11.70;;;;;;;5.56;56.60;98540.97;5060703;28;20186;-69
2023/11/23 01:01:39;;;;;;;15.60;12.00;;;;;;;5.57;56.49;98547.84;5068153;28;20198;-69
2023/11/23 01:04:05;;;;;;;16.53;12.93;;;;;;;5.57;56.83;98552.22;5068650;28;20190;-71
2023/11/23 01:06:30;;;;;;;17.70;12.57;;;;;;;5.58;56.66;98544.31;5059653;28;20467;-68
2023/11/23 01:08:56;;;;;;;20.50;13.20;;;;;;;5.56;56.73;98543.56;5063993;28;20430;-68
2023/11/23 01:11:23;;;;;;;14.57;11.60;;;;;;;5.65;56.93;98543.06;5055171;28;20270;-68
2023/11/23 01:13:49;;;;;;;16.53;11.70;;;;;;;5.61;56.93;98553.69;5066913;28;20218;-69
2023/11/23 01:16:15;;;;;;;15.47;11.83;;;;;;;5.59;57.19;98551.19;5062007;28;20441;-68
2023/11/23 01:18:42;;;;;;;14.60;11.50;;;;;;;5.64;57.20;98548.34;5063770;28;20205;-69
2023/11/23 01:21:07;;;;;;;16.50;13.10;;;;;;;5.67;57.03;98543.78;5069349;28;20256;-69
2023/11/23 01:23:33;;;;;;;18.50;12.70;;;;;;;5.68;56.92;98552.44;5066517;28;21182;-69
2023/11/23 01:25:58;;;;;;;17.07;11.87;;;;;;;5.71;56.87;98556.63;5059109;28;20776;-69
2023/11/23 01:28:24;;;;;;;20.40;12.93;;;;;;;5.75;57.00;98551.16;5065443;28;20674;-69
2023/11/23 01:30:50;;;;;;;16.43;12.70;;;;;;;5.74;56.96;98556.44;5060428;28;20352;-69
2023/11/23 01:33:17;;;;;;;18.13;12.40;;;;;;;5.74;56.74;98553.84;5067401;28;20536;-68
2023/11/23 01:35:42;;;;;;;16.93;12.40;;;;;;;5.69;57.23;98560.16;5066496;28;20178;-70
2023/11/23 01:38:09;;;;;;;16.50;12.67;;;;;;;5.67;57.19;98559.41;5067921;28;20428;-67
2023/11/23 01:40:34;;;;;;;17.80;12.30;;;;;;;5.64;57.36;98559.59;5068153;28;20541;-69
2023/11/23 01:43:02;;;;;;;22.20;12.30;;;;;;;5.67;57.04;98548.16;5062908;28;20452;-71
2023/11/23 01:45:27;;;;;;;14.67;11.53;;;;;;;5.68;57.00;98536.84;5063923;28;20218;-68
2023/11/23 01:47:53;;;;;;;18.63;13.40;;;;;;;5.61;57.30;98536.34;5054327;28;20443;-70
2023/11/23 01:50:19;;;;;;;17.00;13.20;;;;;;;5.61;57.29;98533.75;5044168;28;20833;-69
2023/11/23 01:52:45;;;;;;;16.40;12.50;;;;;;;5.62;57.48;98531.97;5043113;28;20210;-69
2023/11/23 01:55:12;;;;;;;16.33;12.67;;;;;;;5.63;57.32;98526.69;5037135;28;20421;-68
2023/11/23 01:57:38;;;;;;;20.00;12.87;;;;;;;5.69;57.30;98531.53;5055061;28;20437;-70
2023/11/23 02:00:05;;;;;;;16.30;13.17;;;;;;;5.68;57.26;98519.44;5051552;28;20439;-69
2023/11/23 02:02:30;;;;;;;17.90;13.30;;;;;;;5.69;57.33;98521.13;5056226;28;20461;-70
2023/11/23 02:04:59;;;;;;;18.00;13.07;;;;;;;5.67;57.60;98506.53;5055779;28;20896;-68
2023/11/23 02:07:25;;;;;;;17.27;12.70;;;;;;;5.71;57.20;98494.19;5050210;28;20221;-69
2023/11/23 02:09:51;;;;;;;19.73;13.20;;;;;;;5.68;57.45;98493.44;5049715;28;20520;-69
2023/11/23 02:12:18;;;;;;;17.27;12.27;;;;;;;5.74;57.68;98497.44;5046375;28;21372;-70
2023/11/23 02:14:43;;;;;;;17.30;12.93;;;;;;;5.66;57.54;98484.91;5065162;28;20536;-68
2023/11/23 02:17:16;;;;;;;15.53;11.83;;;;;;;5.72;57.23;98490.66;5066514;28;20436;-69
2023/11/23 02:19:45;;;;;;;17.73;13.13;;;;;;;5.73;56.70;98479.34;5059160;28;20183;-70
2023/11/23 02:22:11;;;;;;;18.47;13.10;;;;;;;5.78;56.22;98487.72;5066289;28;20451;-70
2023/11/23 02:24:38;;;;;;;18.03;12.50;;;;;;;5.68;56.92;98480.44;5065327;28;20416;-71
2023/11/23 02:27:03;;;;;;;17.13;12.47;;;;;;;5.67;57.10;98481.34;5048091;28;20199;-69
2023/11/23 02:29:28;;;;;;;17.60;12.77;;;;;;;5.62;56.76;98488.59;5067622;28;20477;-69
2023/11/23 02:31:54;;;;;;;17.40;12.60;;;;;;;5.67;57.12;98486.56;5065835;28;21042;-69
2023/11/23 02:34:19;;;;;;;16.20;12.70;;;;;;;5.63;57.24;98495.47;5059239;28;20293;-70
2023/11/23 02:36:46;;;;;;;17.50;13.03;;;;;;;5.66;56.88;98497.91;5060975;28;20210;-68
2023/11/23 02:39:11;;;;;;;16.07;12.37;;;;;;;5.63;57.48;98495.47;5055587;28;20205;-69
2023/11/23 02:41:37;;;;;;;15.77;12.33;;;;;;;5.64;56.97;98488.50;5059914;28;20923;-69
2023/11/23 02:44:02;;;;;;;17.93;12.70;;;;;;;5.63;57.15;98484.22;5064264;28;20691;-68
2023/11/23 02:46:27;;;;;;;19.20;13.00;;;;;;;5.66;56.85;98484.91;5066412;28;20248;-69
2023/11/23 02:48:53;;;;;;;17.97;12.40;;;;;;;5.56;57.22;98488.94;5066819;28;20485;-68
2023/11/23 02:51:19;;;;;;;16.43;12.20;;;;;;;5.59;56.82;98498.34;5067645;28;20186;-68
2023/11/23 02:53:47;;;;;;;16.57;12.27;;;;;;;5.63;56.51;98492.88;5058352;28;20265;-68
2023/11/23 02:56:13;;;;;;;17.67;12.73;;;;;;;5.67;56.43;98496.13;5059891;28;20253;-70
2023/11/23 02:58:39;;;;;;;17.00;12.80;;;;;;;5.62;56.28;98493.81;5060068;28;20439;-69
2023/11/23 03:01:05;;;;;;;16.90;12.83;;;;;;;5.57;56.83;98485.41;5064473;28;20191;-69
2023/11/23 03:03:30;;;;;;;16.67;12.27;;;;;;;5.53;56.52;98483.94;5060567;28;20460;-69
2023/11/23 03:05:58;;;;;;;17.80;12.07;;;;;;;5.45;57.35;98487.00;5051813;28;20467;-69
2023/11/23 03:08:23;;;;;;;22.30;13.10;;;;;;;5.45;57.20;98492.19;5066978;28;20182;-68
2023/11/23 03:10:49;;;;;;;17.40;12.73;;;;;;;5.51;57.52;98496.19;5066322;28;20454;-68
2023/11/23 03:13:14;;;;;;;17.93;12.73;;;;;;;5.50;57.74;98495.34;5041107;28;20233;-68
2023/11/23 03:15:40;;;;;;;16.03;11.70;;;;;;;5.50;57.52;98505.75;5065853;28;20266;-69
2023/11/23 03:18:05;;;;;;;18.13;12.77;;;;;;;5.50;56.92;98499.72;5070360;28;20277;-69
2023/11/23 03:20:31;;;;;;;17.90;12.87;;;;;;;5.41;57.12;98495.88;5070341;28;20198;-69
2023/11/23 03:22:56;;;;;;;16.47;12.33;;;;;;;5.43;57.10;98498.38;5062435;28;20241;-69
2023/11/23 03:25:21;;;;;;;18.00;11.93;;;;;;;5.41;57.50;98495.88;5071358;28;20206;-70
2023/11/23 03:27:47;;;;;;;16.47;12.00;;;;;;;5.43;57.50;98500.97;5070284;28;20229;-68
2023/11/23 03:30:12;;;;;;;16.50;12.27;;;;;;;5.38;57.12;98493.44;5070749;28;20276;-68
2023/11/23 03:32:38;;;;;;;17.07;12.60;;;;;;;5.39;57.05;98492.53;5070776;28;20210;-68
2023/11/23 03:35:04;;;;;;;17.53;12.63;;;;;;;5.36;57.46;98488.34;5070366;28;20214;-69
2023/11/23 03:37:29;;;;;;;24.70;13.17;;;;;;;5.38;57.45;98490.84;5070866;28;20256;-69
2023/11/23 03:39:55;;;;;;;16.47;11.93;;;;;;;5.41;57.50;98485.47;5070173;28;20281;-69
2023/11/23 03:42:21;;;;;;;17.50;12.57;;;;;;;5.47;56.71;98489.50;5070158;28;20267;-70
2023/11/23 03:44:47;;;;;;;15.30;12.47;;;;;;;5.42;57.06;98496.72;5069336;28;20876;-69
2023/11/23 03:47:12;;;;;;;14.87;11.63;;;;;;;5.43;57.16;98494.03;5070774;28;20205;-69
2023/11/23 03:49:37;;;;;;;18.70;13.27;;;;;;;5.35;57.38;98494.47;5070467;28;20337;-69
2023/11/23 03:52:03;;;;;;;15.70;12.40;;;;;;;5.30;57.03;98506.88;5067593;28;20225;-71
2023/11/23 03:54:29;;;;;;;15.30;11.37;;;;;;;5.35;57.31;98493.66;5067308;28;20206;-70
2023/11/23 03:56:54;;;;;;;22.77;12.73;;;;;;;5.35;57.25;98491.88;5064579;28;21093;-68
2023/11/23 03:59:20;;;;;;;17.20;12.67;;;;;;;5.25;57.19;98493.31;5065860;28;20812;-68
2023/11/23 04:01:46;;;;;;;16.90;12.40;;;;;;;5.20;57.53;98490.13;5070346;28;20218;-70
2023/11/23 04:04:12;;;;;;;16.30;12.37;;;;;;;5.27;57.50;98494.09;5061597;28;20452;-69
2023/11/23 04:06:37;;;;;;;15.33;11.33;;;;;;;5.27;57.40;98488.88;5059583;28;20460;-70
2023/11/23 04:09:03;;;;;;;17.53;12.70;;;;;;;5.29;57.25;98480.97;5051466;28;20447;-69
2023/11/23 04:11:28;;;;;;;18.00;12.30;;;;;;;5.26;57.02;98474.22;5070359;28;20236;-68
2023/11/23 04:13:54;;;;;;;16.27;11.70;;;;;;;5.27;57.50;98473.28;5068099;28;20210;-68
2023/11/23 04:16:20;;;;;;;17.83;12.57;;;;;;;5.25;57.54;98469.94;5060929;28;20182;-68
2023/11/23 04:18:46;;;;;;;21.50;13.80;;;;;;;5.23;57.33;98466.56;5067831;28;20201;-70
2023/11/23 04:21:11;;;;;;;16.27;11.30;;;;;;;5.21;57.23;98455.44;5062257;28;20355;-70
2023/11/23 04:23:37;;;;;;;16.37;12.10;;;;;;;5.26;57.09;98468.16;5070050;28;20531;-70
2023/11/23 04:26:03;;;;;;;15.23;12.03;;;;;;;5.22;57.34;98473.56;5067710;28;20649;-70
2023/11/23 04:28:28;;;;;;;16.00;11.43;;;;;;;5.24;57.24;98478.66;5057678;28;20263;-68
2023/11/23 04:30:54;;;;;;;15.20;11.60;;;;;;;5.20;57.40;98480.59;5055188;28;20551;-68
2023/11/23 04:33:22;;;;;;;18.93;13.07;;;;;;;5.19;57.46;98480.66;5069512;28;20288;-68
2023/11/23 04:35:48;;;;;;;17.57;12.67;;;;;;;5.15;57.50;98485.22;5059923;28;20641;-69
2023/11/23 04:38:14;;;;;;;20.37;13.70;;;;;;;5.19;57.43;98478.91;5065533;28;20447;-69
2023/11/23 04:40:39;;;;;;;24.83;17.10;;;;;;;5.18;57.44;98478.97;5069240;28;20425;-67
2023/11/23 04:43:05;;;;;;;28.60;18.40;;;;;;;5.19;57.06;98478.91;5063436;28;20628;-69
2023/11/23 04:45:31;;;;;;;28.73;17.93;;;;;;;5.14;57.44;98482.69;5063035;28;20214;-69
2023/11/23 04:47:56;;;;;;;24.70;16.33;;;;;;;5.13;57.64;98483.63;5042157;28;20194;-68
2023/11/23 04:50:21;;;;;;;23.93;14.70;;;;;;;5.12;57.05;98479.34;5068071;28;20332;-68
2023/11/23 04:52:47;;;;;;;18.97;13.37;;;;;;;5.12;57.17;98474.16;5048445;28;20217;-70
2023/11/23 04:55:12;;;;;;;17.50;12.73;;;;;;;5.16;57.41;98473.88;5032962;28;20278;-69
2023/11/23 04:57:38;;;;;;;20.60;13.07;;;;;;;5.22;57.31;98475.28;4997271;28;20190;-68
2023/11/23 05:00:05;;;;;;;22.43;13.27;;;;;;;5.16;57.28;98468.69;5043770;28;20262;-71
2023/11/23 05:02:30;;;;;;;19.40;12.80;;;;;;;5.11;56.92;98464.69;5027944;28;20316;-69
2023/11/23 05:04:55;;;;;;;17.73;12.73;;;;;;;5.11;57.17;98451.69;5064741;28;20547;-69
2023/11/23 05:07:21;;;;;;;22.33;12.93;;;;;;;5.02;57.13;98455.63;5056228;28;20211;-70
2023/11/23 05:09:46;;;;;;;17.87;12.20;;;;;;;5.04;57.27;98453.78;5062424;28;20667;-69
2023/11/23 05:12:12;;;;;;;20.00;14.10;;;;;;;5.05;57.67;98458.88;5066644;28;20210;-69
2023/11/23 05:14:37;;;;;;;19.53;13.63;;;;;;;5.04;57.21;98459.81;5057630;28;20202;-68
2023/11/23 05:17:03;;;;;;;17.93;13.27;;;;;;;5.01;57.89;98457.41;5061945;28;20186;-71
2023/11/23 05:19:28;;;;;;;20.00;14.40;;;;;;;4.98;57.66;98451.56;5059549;28;20194;-69
2023/11/23 05:21:54;;;;;;;22.27;15.50;;;;;;;4.99;57.70;98448.84;5046855;28;20224;-70
2023/11/23 05:24:19;;;;;;;26.63;18.90;;;;;;;5.06;57.42;98439.78;5067118;28;20198;-69
2023/11/23 05:26:45;;;;;;;27.50;19.93;;;;;;;5.00;57.27;98449.69;5058957;28;20225;-69
2023/11/23 05:29:10;;;;;;;25.27;18.60;;;;;;;4.99;57.64;98454.06;5066123;28;20263;-69
2023/11/23 05:31:36;;;;;;;22.47;15.83;;;;;;;5.00;57.94;98450.53;5052923;28;20198;-69
2023/11/23 05:34:02;;;;;;;21.87;15.13;;;;;;;4.96;57.83;98443.81;5057883;28;20190;-67
2023/11/23 05:36:28;;;;;;;20.90;14.90;;;;;;;4.97;57.40;98444.69;5050967;28;20195;-68
2023/11/23 05:38:54;;;;;;;19.47;14.70;;;;;;;4.91;57.95;98456.25;5045392;28;20443;-69
2023/11/23 05:41:19;;;;;;;22.73;15.90;;;;;;;4.93;57.77;98456.97;5060652;28;20297;-68
2023/11/23 05:43:45;;;;;;;25.07;17.00;;;;;;;4.98;57.45;98457.56;5055342;28;20213;-69
2023/11/23 05:46:11;;;;;;;26.60;16.70;;;;;;;4.96;57.73;98463.78;5059569;28;20263;-70
2023/11/23 05:48:36;;;;;;;33.23;19.77;;;;;;;4.98;57.55;98465.38;5059347;28;20477;-69
2023/11/23 05:51:02;;;;;;;66.37;37.20;;;;;;;4.98;57.74;98480.97;5062656;28;20194;-70
2023/11/23 05:53:27;;;;;;;75.97;39.90;;;;;;;4.95;57.66;98477.69;5047599;28;20214;-68
2023/11/23 05:55:53;;;;;;;64.00;35.27;;;;;;;4.98;57.90;98483.56;5059209;28;20190;-69
2023/11/23 05:58:18;;;;;;;55.70;30.87;;;;;;;5.01;58.18;98482.53;5062554;28;20275;-69
2023/11/23 06:00:44;;;;;;;45.40;25.83;;;;;;;5.06;57.52;98480.53;5053246;28;20223;-69
2023/11/23 06:03:10;;;;;;;40.10;24.00;;;;;;;4.95;58.16;98478.53;5055045;28;20649;-68
2023/11/23 06:05:35;;;;;;;40.03;21.80;;;;;;;4.96;58.02;98479.38;5066531;28;20544;-68
2023/11/23 06:08:01;;;;;;;38.77;23.30;;;;;;;4.93;58.10;98472.56;5065161;28;20195;-69
2023/11/23 06:10:27;;;;;;;37.27;22.30;;;;;;;4.91;58.14;98471.84;5058945;28;20198;-68
2023/11/23 06:12:52;;;;;;;30.77;19.07;;;;;;;4.95;57.73;98478.53;5025514;28;1054052;-70
2023/11/23 06:15:17;;;;;;;32.33;19.13;;;;;;;4.92;57.80;98481.28;5066488;28;20190;-69
2023/11/23 06:17:44;;;;;;;25.57;16.10;;;;;;;4.96;58.17;98480.19;5064893;28;20226;-68
2023/11/23 06:20:12;;;;;;;25.50;17.30;;;;;;;5.01;57.66;98482.53;5052119;28;20190;-69
2023/11/23 06:22:37;;;;;;;23.50;16.70;;;;;;;5.00;57.92;98481.72;5066011;28;20448;-69
2023/11/23 06:25:03;;;;;;;25.30;16.87;;;;;;;4.93;57.67;98477.75;5056893;28;20503;-69
2023/11/23 06:27:32;;;;;;;20.70;14.70;;;;;;;4.98;57.59;98480.97;5062146;28;20566;-68
2023/11/23 06:29:57;;;;;;;21.70;14.97;;;;;;;4.99;58.02;98490.44;5052197;28;20921;-67
2023/11/23 06:32:22;;;;;;;20.90;13.77;;;;;;;5.05;58.05;98490.06;5061188;28;20448;-69
2023/11/23 06:34:48;;;;;;;15.23;10.70;;;;;;;5.01;57.67;98493.78;5063860;28;20214;-67
2023/11/23 06:37:13;;;;;;;15.90;11.50;;;;;;;5.07;58.39;98493.44;5058065;28;20186;-68
2023/11/23 06:39:39;;;;;;;15.77;11.20;;;;;;;5.08;58.15;98489.91;5061636;28;20266;-68
2023/11/23 06:42:04;;;;;;;16.93;11.30;;;;;;;5.16;57.43;98484.28;5050633;28;20237;-68
2023/11/23 06:44:30;;;;;;;17.77;11.43;;;;;;;5.18;57.87;98494.59;5061611;28;20240;-69
2023/11/23 06:46:55;;;;;;;14.87;10.77;;;;;;;5.20;57.85;98498.78;5054013;28;20218;-68
2023/11/23 06:49:21;;;;;;;15.50;9.70;;;;;;;5.27;57.28;98491.47;5058013;28;20190;-69
2023/11/23 06:51:47;;;;;;;14.67;9.20;;;;;;;5.29;57.47;98491.38;5066400;28;20872;-69
2023/11/23 06:54:12;;;;;;;14.40;9.50;;;;;;;5.22;57.62;98502.16;5061471;28;20178;-68
2023/11/23 06:56:38;;;;;;;12.00;8.87;;;;;;;5.26;57.65;98495.00;5067195;28;20236;-69
2023/11/23 06:59:04;;;;;;;13.47;9.63;;;;;;;5.31;57.54;98492.97;5058898;28;20673;-69
2023/11/23 07:01:29;;;;;;;14.17;9.70;;;;;;;5.36;57.48;98482.28;5047790;28;20197;-68
2023/11/23 07:03:55;;;;;;;19.10;9.30;;;;;;;5.37;57.38;98491.78;5066955;28;20472;-69
2023/11/23 07:06:23;;;;;;;13.27;10.20;;;;;;;5.32;57.58;98475.63;5061299;28;20283;-69
2023/11/23 07:08:52;;;;;;;15.73;9.57;;;;;;;5.32;57.32;98478.22;5049494;28;20194;-68
2023/11/23 07:11:18;;;;;;;16.40;9.80;;;;;;;5.35;57.54;98478.88;5066375;28;20437;-69
2023/11/23 07:13:44;;;;;;;13.73;9.30;;;;;;;5.33;57.63;98474.69;5060419;28;20448;-67
2023/11/23 07:16:12;;;;;;;16.00;10.53;;;;;;;5.32;57.76;98476.44;5063990;28;21141;-69
2023/11/23 07:18:40;;;;;;;15.93;10.13;;;;;;;5.43;57.73;98478.44;5066053;28;20441;-69
2023/11/23 07:21:06;;;;;;;12.53;9.20;;;;;;;5.52;57.15;98471.88;5067453;28;20432;-68
2023/11/23 07:23:32;;;;;;;16.70;8.23;;;;;;;5.57;57.29;98469.81;5062590;28;20441;-68
2023/11/23 07:25:57;;;;;;;10.97;7.90;;;;;;;5.60;57.35;98472.25;5060313;28;20993;-68
2023/11/23 07:28:25;;;;;;;9.10;6.60;;;;;;;5.69;56.78;98474.31;5064339;28;20186;-68
2023/11/23 07:30:51;;;;;;;8.57;6.53;;;;;;;5.78;56.60;98477.31;5064500;28;20199;-68
2023/11/23 07:33:17;;;;;;;8.50;6.30;;;;;;;5.91;56.39;98474.78;5055471;28;20923;-69
2023/11/23 07:35:46;;;;;;;16.10;10.83;;;;;;;6.05;56.73;98471.41;5065264;28;20585;-68
2023/11/23 07:38:12;;;;;;;31.83;17.00;;;;;;;6.10;56.50;98478.00;5064260;28;20428;-67
2023/11/23 07:40:38;;;;;;;24.60;13.70;;;;;;;6.16;56.46;98479.41;5060886;28;20421;-68
2023/11/23 07:43:04;;;;;;;18.17;11.40;;;;;;;6.20;56.16;98480.06;5044556;28;20450;-67
2023/11/23 07:45:30;;;;;;;11.53;8.43;;;;;;;6.09;56.98;98481.53;5066038;28;20704;-68
2023/11/23 07:47:55;;;;;;;12.00;8.13;;;;;;;6.11;56.70;98492.69;5065008;28;20190;-68
2023/11/23 07:50:20;;;;;;;10.63;8.07;;;;;;;6.18;56.79;98484.50;5057351;28;20524;-68
2023/11/23 07:52:46;;;;;;;11.77;8.90;;;;;;;6.20;56.55;98486.09;5066818;28;20202;-68
2023/11/23 07:55:15;;;;;;;13.00;9.60;;;;;;;6.20;56.76;98473.06;5066796;28;20584;-67
2023/11/23 07:57:42;;;;;;;10.60;8.40;;;;;;;6.18;56.42;98471.50;5066652;28;20571;-68
2023/11/23 08:00:08;;;;;;;17.80;9.23;;;;;;;6.15;56.55;98467.31;5044415;28;20432;-69
2023/11/23 08:02:33;;;;;;;11.73;8.80;;;;;;;6.60;57.16;98461.97;5066680;28;20494;-69
2023/11/23 08:04:59;;;;;;;14.90;11.00;;;;;;;7.18;56.28;98462.59;5070516;28;20225;-68
2023/11/23 08:07:25;;;;;;;18.10;11.80;;;;;;;7.58;55.12;98468.72;5061055;28;20191;-69
2023/11/23 08:09:51;;;;;;;14.63;9.30;;;;;;;7.75;54.61;98472.84;5068237;28;20470;-70
2023/11/23 08:12:18;;;;;;;21.23;9.90;;;;;;;7.80;54.48;98475.97;5068963;28;20437;-70
2023/11/23 08:14:43;;;;;;;12.67;9.33;;;;;;;7.70;54.90;98473.13;5061987;28;20477;-67
2023/11/23 08:17:11;;;;;;;14.77;8.03;;;;;;;7.70;54.69;98475.72;5061115;28;20435;-67
2023/11/23 08:19:37;;;;;;;7.33;5.53;;;;;;;7.66;53.61;98476.91;5061749;28;20665;-68
2023/11/23 08:22:03;;;;;;;6.43;4.50;;;;;;;7.59;53.14;98467.78;5069765;28;20451;-68
2023/11/23 08:24:29;;;;;;;6.57;4.60;;;;;;;7.57;52.99;98469.66;5055474;28;20425;-68
2023/11/23 08:26:54;;;;;;;5.03;4.50;;;;;;;7.59;52.64;98470.41;5069300;28;20619;-68
2023/11/23 08:29:20;;;;;;;10.30;5.50;;;;;;;7.52;52.44;98480.41;5068192;28;20186;-68
2023/11/23 08:31:46;;;;;;;6.13;4.83;;;;;;;7.52;52.77;98473.44;5052639;28;20178;-69
2023/11/23 08:34:11;;;;;;;11.90;7.03;;;;;;;7.57;53.02;98480.94;5036646;28;20437;-68
2023/11/23 08:36:41;;;;;;;6.60;5.13;;;;;;;7.58;52.59;98481.78;5051097;28;20404;-68
2023/11/23 08:39:11;;;;;;;5.50;4.20;;;;;;;7.49;53.47;98478.03;5037422;28;20609;-68
2023/11/23 08:41:38;;;;;;;6.17;4.50;;;;;;;7.45;53.33;98471.31;5060313;28;20445;-68
2023/11/23 08:44:04;;;;;;;4.87;4.17;;;;;;;7.50;53.84;98475.31;5054689;28;20460;-69
2023/11/23 08:46:30;;;;;;;6.17;5.03;;;;;;;7.51;53.29;98469.16;5058517;28;20464;-69
2023/11/23 08:48:55;;;;;;;5.60;4.70;;;;;;;7.62;53.71;98458.00;5069464;28;20953;-70
2023/11/23 08:51:21;;;;;;;6.00;5.20;;;;;;;7.67;53.35;98460.31;5061313;28;20235;-67
2023/11/23 08:53:46;;;;;;;7.23;5.60;;;;;;;7.82;54.80;98459.25;5052105;28;20220;-68
2023/11/23 08:56:11;;;;;;;11.63;7.50;;;;;;;7.99;56.21;98454.66;5064682;28;20652;-67
2023/11/23 08:58:37;;;;;;;6.40;4.60;;;;;;;8.05;54.86;98459.47;5061455;28;20598;-68
2023/11/23 09:01:03;;;;;;;7.47;5.43;;;;;;;8.07;54.78;98454.94;5069334;28;20617;-68
2023/11/23 09:03:30;;;;;;;6.50;4.47;;;;;;;7.92;53.44;98443.78;5058974;28;20214;-67
2023/11/23 09:05:55;;;;;;;8.23;4.80;;;;;;;7.94;53.43;98441.91;5057432;28;20521;-70
2023/11/23 09:08:21;;;;;;;6.17;4.70;;;;;;;7.85;53.75;98429.50;5059426;28;20720;-68
2023/11/23 09:10:48;;;;;;;7.67;5.10;;;;;;;7.78;53.73;98438.69;5069614;28;20178;-67
2023/11/23 09:13:15;;;;;;;10.03;5.10;;;;;;;7.84;53.50;98426.03;5064258;28;20488;-68
2023/11/23 09:15:41;;;;;;;5.50;4.60;;;;;;;7.85;53.78;98432.13;5047987;28;20444;-68
2023/11/23 09:18:06;;;;;;;5.23;4.40;;;;;;;7.96;53.65;98428.75;5058169;28;20516;-69
2023/11/23 09:20:32;;;;;;;6.40;4.30;;;;;;;8.05;54.12;98428.13;5067541;28;20441;-67
2023/11/23 09:23:01;;;;;;;7.53;5.70;;;;;;;8.06;53.80;98427.19;5064879;28;20728;-67
2023/11/23 09:25:28;;;;;;;5.87;5.20;;;;;;;8.09;53.98;98424.34;5059987;28;20547;-68
2023/11/23 09:27:55;;;;;;;5.77;4.40;;;;;;;8.08;53.93;98425.28;5068390;28;20429;-67
2023/11/23 09:30:20;;;;;;;5.33;4.40;;;;;;;8.02;54.04;98417.91;5064796;28;20444;-67
2023/11/23 09:32:46;;;;;;;11.50;3.90;;;;;;;8.00;54.64;98425.81;5060768;28;20328;-67
2023/11/23 09:35:11;;;;;;;4.70;4.00;;;;;;;7.99;54.28;98423.31;5049004;28;20209;-68
2023/11/23 09:37:37;;;;;;;5.73;4.13;;;;;;;8.03;54.83;98403.06;5055755;28;20274;-67
2023/11/23 09:40:09;;;;;;;4.10;3.63;;;;;;;8.05;54.74;98401.16;5058675;28;20596;-67
2023/11/23 09:42:38;;;;;;;5.70;4.00;;;;;;;8.17;54.38;98399.50;5068373;28;20215;-67
2023/11/23 09:45:06;;;;;;;4.43;4.00;;;;;;;8.25;54.99;98391.94;5063470;28;20460;-67
2023/11/23 09:47:34;;;;;;;4.47;3.50;;;;;;;8.17;54.80;98384.66;5050071;28;20574;-67
2023/11/23 09:50:01;;;;;;;5.40;3.60;;;;;;;8.30;55.15;98384.63;5067907;28;21077;-68
2023/11/23 09:52:30;;;;;;;4.57;3.67;;;;;;;8.41;54.75;98387.31;5066684;28;20809;-67
2023/11/23 09:54:57;;;;;;;4.10;3.67;;;;;;;8.47;55.47;98375.59;5061986;28;20529;-68
2023/11/23 09:57:23;;;;;;;4.70;4.13;;;;;;;8.55;55.21;98383.72;5049950;28;20448;-68
2023/11/23 09:59:49;;;;;;;6.03;4.20;;;;;;;8.63;55.32;98375.34;5068412;28;20456;-68
2023/11/23 10:02:17;;;;;;;6.30;3.50;;;;;;;8.66;54.90;98369.88;5069383;28;20483;-68
2023/11/23 10:04:42;;;;;;;5.90;3.27;;;;;;;8.71;54.50;98366.94;5051216;28;20571;-69
2023/11/23 10:07:08;;;;;;;5.43;3.70;;;;;;;8.63;54.28;98364.06;5068465;28;20471;-67
2023/11/23 10:09:35;;;;;;;5.03;3.87;;;;;;;8.74;54.66;98361.50;5050368;28;20191;-67
2023/11/23 10:12:02;;;;;;;4.20;3.33;;;;;;;8.80;55.02;98344.53;5062433;28;20657;-67
2023/11/23 10:14:28;;;;;;;6.17;4.43;;;;;;;8.88;54.49;98348.22;5063732;28;20445;-68
2023/11/23 10:16:54;;;;;;;4.43;3.40;;;;;;;8.83;55.20;98341.66;5046621;28;20503;-66
2023/11/23 10:19:23;;;;;;;6.20;4.00;;;;;;;8.95;55.16;98345.97;5068366;28;20456;-70
2023/11/23 10:21:48;;;;;;;7.63;3.77;;;;;;;9.02;55.05;98341.13;5061571;28;20193;-69
2023/11/23 10:24:16;;;;;;;6.40;3.70;;;;;;;9.09;55.21;98338.88;5068127;28;20429;-69
2023/11/23 10:26:42;;;;;;;8.27;3.63;;;;;;;9.16;55.03;98342.72;5064885;28;20216;-70
2023/11/23 10:29:09;;;;;;;5.97;3.90;;;;;;;9.24;54.69;98339.53;5067871;28;20425;-70
2023/11/23 10:31:35;;;;;;;4.10;3.63;;;;;;;9.21;54.53;98337.97;5063943;28;20864;-69
2023/11/23 10:34:02;;;;;;;4.10;3.20;;;;;;;9.21;54.41;98328.34;5060339;28;20531;-70
2023/11/23 10:36:28;;;;;;;6.50;3.93;;;;;;;9.20;54.47;98316.22;5065834;28;20490;-66
2023/11/23 10:38:56;;;;;;;6.93;4.17;;;;;;;9.25;55.11;98320.28;5064860;28;20437;-68
2023/11/23 10:41:21;;;;;;;3.90;3.40;;;;;;;9.24;54.87;98316.81;5068374;28;20187;-67
2023/11/23 10:43:49;;;;;;;3.67;3.37;;;;;;;9.26;54.59;98309.69;5065832;28;20613;-67
2023/11/23 10:46:18;;;;;;;5.80;3.67;;;;;;;9.30;55.17;98324.22;5032657;28;20862;-67
2023/11/23 10:48:45;;;;;;;4.27;3.87;;;;;;;9.26;55.10;98314.91;5063560;28;20904;-69
2023/11/23 10:51:11;;;;;;;3.87;3.50;;;;;;;9.21;55.26;98312.66;5064506;28;20452;-69
2023/11/23 10:53:39;;;;;;;5.83;3.57;;;;;;;9.27;55.02;98308.72;5059541;28;20445;-67
2023/11/23 10:56:07;;;;;;;5.47;4.23;;;;;;;9.29;55.03;98308.59;5065076;28;20676;-67
2023/11/23 10:58:37;;;;;;;4.43;3.30;;;;;;;9.29;55.24;98298.16;5048509;28;20493;-67
2023/11/23 11:01:07;;;;;;;4.40;3.70;;;;;;;9.32;54.80;98298.75;5042115;28;20432;-67
2023/11/23 11:03:34;;;;;;;5.80;3.50;;;;;;;9.34;54.70;98290.78;5058480;28;20547;-67
2023/11/23 11:05:59;;;;;;;8.23;4.27;;;;;;;9.30;55.12;98281.50;5043241;28;20453;-69
2023/11/23 11:08:27;;;;;;;5.23;4.50;;;;;;;9.25;55.15;98287.09;5049404;28;20743;-69
2023/11/23 11:10:53;;;;;;;5.57;4.40;;;;;;;9.31;54.63;98283.16;5055601;28;20187;-68
2023/11/23 11:13:24;;;;;;;6.43;4.13;;;;;;;9.30;54.94;98271.03;5064920;28;20483;-69
2023/11/23 11:15:56;;;;;;;5.50;4.63;;;;;;;9.34;54.67;98269.84;5040617;28;20432;-68
2023/11/23 11:18:31;;;;;;;6.70;4.20;;;;;;;9.24;55.26;98261.88;5062998;28;20498;-67
2023/11/23 11:21:06;;;;;;;4.87;4.00;;;;;;;9.32;55.04;98262.13;5059519;28;20779;-69
2023/11/23 11:23:51;;;;;;;5.63;4.00;;;;;;;9.32;55.39;98259.53;5061963;28;20447;-68